Time;durP1;ratioP1;P1;durP2;ratioP2;P2;SDS_P1;SDS_P2;PMS_P1;PMS_P2;Temp;Humidity;BMP_temperature;BMP_pressure;BME280_temperature;BME280_humidity;BME280_pressure;Samples;Min_cycle;Max_cycle;Signal;HPM_P1;HPM_P2
2022/09/23 00:00:44;;;;;;;1.27;1.17;;;;;;;;;;4959625;28;20774;-82
2022/09/23 00:03:12;;;;;;;1.55;1.02;;;;;;;;;;4959564;28;20671;-81
2022/09/23 00:05:39;;;;;;;1.00;1.00;;;;;;;;;;4959174;28;20301;-79
2022/09/23 00:08:08;;;;;;;1.55;1.30;;;;;;;;;;4959257;28;20291;-81
2022/09/23 00:10:39;;;;;;;1.70;0.90;;;;;;;;;;4959365;28;20291;-80
2022/09/23 00:13:08;;;;;;;0.90;0.90;;;;;;;;;;4961185;28;20280;-79
2022/09/23 00:15:39;;;;;;;1.23;1.00;;;;;;;;;;4959747;28;20558;-79
2022/09/23 00:18:07;;;;;;;1.52;1.00;;;;;;;;;;4961137;28;20220;-81
2022/09/23 00:20:35;;;;;;;1.05;1.00;;;;;;;;;;4958816;28;20225;-81
2022/09/23 00:23:03;;;;;;;0.70;0.70;;;;;;;;;;4958528;28;20190;-81
2022/09/23 00:25:30;;;;;;;1.98;1.83;;;;;;;;;;4959248;28;20211;-82
2022/09/23 00:27:58;;;;;;;1.20;1.10;;;;;;;;;;4960100;28;20690;-82
2022/09/23 00:30:27;;;;;;;0.82;0.82;;;;;;;;;;4960394;28;20213;-81
2022/09/23 00:32:55;;;;;;;0.90;0.90;;;;;;;;;;4959779;28;20240;-83
2022/09/23 00:35:23;;;;;;;0.85;0.85;;;;;;;;;;4959964;28;20205;-81
2022/09/23 00:37:50;;;;;;;1.10;1.00;;;;;;;;;;4958850;28;20284;-82
2022/09/23 00:40:18;;;;;;;1.45;1.35;;;;;;;;;;4958975;28;20205;-81
2022/09/23 00:42:50;;;;;;;1.20;1.15;;;;;;;;;;4961222;28;20205;-83
2022/09/23 00:45:18;;;;;;;1.05;1.05;;;;;;;;;;4958868;28;20212;-83
2022/09/23 00:47:50;;;;;;;1.70;1.30;;;;;;;;;;4958225;28;20208;-83
2022/09/23 00:50:24;;;;;;;1.50;1.40;;;;;;;;;;4958755;28;20541;-83
2022/09/23 00:52:54;;;;;;;0.80;0.80;;;;;;;;;;4959573;28;20373;-83
2022/09/23 00:55:25;;;;;;;0.80;0.80;;;;;;;;;;4959611;28;20576;-83
2022/09/23 00:57:55;;;;;;;1.15;1.05;;;;;;;;;;4958530;28;20268;-83
2022/09/23 01:00:24;;;;;;;2.67;1.30;;;;;;;;;;4959063;28;20562;-81
2022/09/23 01:02:53;;;;;;;1.48;1.38;;;;;;;;;;4958610;28;20200;-82
2022/09/23 01:05:21;;;;;;;0.80;0.80;;;;;;;;;;4957882;28;20211;-82
2022/09/23 01:07:48;;;;;;;1.00;1.00;;;;;;;;;;4957944;28;20209;-83
2022/09/23 01:10:18;;;;;;;1.02;1.02;;;;;;;;;;4958693;28;20697;-81
2022/09/23 01:13:02;;;;;;;0.80;0.80;;;;;;;;;;4960576;28;20211;-81
2022/09/23 01:15:36;;;;;;;0.90;0.90;;;;;;;;;;4962006;28;20228;-83
2022/09/23 01:18:12;;;;;;;0.85;0.85;;;;;;;;;;4962625;28;20280;-83
2022/09/23 01:21:05;;;;;;;0.85;0.85;;;;;;;;;;4961256;28;20205;-83
2022/09/23 01:24:32;;;;;;;0.90;0.90;;;;;;;;;;4959868;28;20229;-81
2022/09/23 01:27:07;;;;;;;1.00;1.00;;;;;;;;;;4961985;28;20231;-80
2022/09/23 01:30:17;;;;;;;0.90;0.90;;;;;;;;;;4960531;28;20185;-82
2022/09/23 01:33:10;;;;;;;1.15;1.10;;;;;;;;;;4960038;28;20641;-81
2022/09/23 01:35:49;;;;;;;0.90;0.88;;;;;;;;;;4961865;28;20667;-83
2022/09/23 01:38:38;;;;;;;0.98;0.82;;;;;;;;;;4959366;28;20185;-83
2022/09/23 01:41:17;;;;;;;1.33;1.23;;;;;;;;;;4958946;28;20189;-80
2022/09/23 01:43:49;;;;;;;0.80;0.80;;;;;;;;;;4959407;28;20626;-83
2022/09/23 01:46:20;;;;;;;0.95;0.90;;;;;;;;;;4958895;28;20611;-81
2022/09/23 01:48:55;;;;;;;0.80;0.80;;;;;;;;;;4959752;28;20277;-81
2022/09/23 01:51:27;;;;;;;0.80;0.80;;;;;;;;;;4962539;28;20200;-81
2022/09/23 01:54:01;;;;;;;0.65;0.65;;;;;;;;;;4961744;28;20285;-83
2022/09/23 01:56:33;;;;;;;0.60;0.60;;;;;;;;;;4962441;28;20217;-82
2022/09/23 01:59:08;;;;;;;1.08;0.98;;;;;;;;;;4964934;28;20223;-80
2022/09/23 02:01:40;;;;;;;0.70;0.70;;;;;;;;;;4963830;28;20196;-82
2022/09/23 02:04:14;;;;;;;0.82;0.82;;;;;;;;;;4962591;28;20233;-83
2022/09/23 02:06:46;;;;;;;1.17;1.08;;;;;;;;;;4962928;28;20185;-81
2022/09/23 02:09:16;;;;;;;1.00;1.00;;;;;;;;;;4961883;28;20207;-82
2022/09/23 02:11:47;;;;;;;1.05;1.00;;;;;;;;;;4962007;28;20272;-82
2022/09/23 02:14:19;;;;;;;1.55;1.45;;;;;;;;;;4961891;28;20251;-82
2022/09/23 02:16:49;;;;;;;1.10;1.10;;;;;;;;;;4962225;28;20662;-80
2022/09/23 02:19:25;;;;;;;1.35;1.25;;;;;;;;;;4961958;28;20644;-80
2022/09/23 02:21:57;;;;;;;1.38;1.20;;;;;;;;;;4962763;28;20193;-80
2022/09/23 02:24:29;;;;;;;1.10;1.10;;;;;;;;;;4961391;28;20315;-83
2022/09/23 02:27:03;;;;;;;1.10;1.08;;;;;;;;;;4962312;28;20195;-82
2022/09/23 02:29:37;;;;;;;1.10;1.10;;;;;;;;;;4961707;28;20401;-81
2022/09/23 02:32:12;;;;;;;1.00;1.00;;;;;;;;;;4961311;28;20675;-81
2022/09/23 02:34:46;;;;;;;1.20;1.00;;;;;;;;;;4961226;28;20307;-83
2022/09/23 02:37:24;;;;;;;1.90;1.17;;;;;;;;;;4961746;28;20197;-83
2022/09/23 02:40:00;;;;;;;0.80;0.80;;;;;;;;;;4960815;28;20690;-81
2022/09/23 02:42:37;;;;;;;0.80;0.80;;;;;;;;;;4960537;28;20212;-83
2022/09/23 02:45:06;;;;;;;0.90;0.90;;;;;;;;;;4960610;28;20311;-80
2022/09/23 02:47:35;;;;;;;0.70;0.70;;;;;;;;;;4960195;28;20295;-81
2022/09/23 02:50:04;;;;;;;0.90;0.90;;;;;;;;;;4961157;28;20201;-82
2022/09/23 02:52:33;;;;;;;1.25;1.10;;;;;;;;;;4961536;28;20730;-80
2022/09/23 02:55:01;;;;;;;0.80;0.80;;;;;;;;;;4961389;28;20248;-81
2022/09/23 02:57:28;;;;;;;1.00;1.00;;;;;;;;;;4961396;28;20727;-81
2022/09/23 02:59:55;;;;;;;1.05;1.02;;;;;;;;;;4961051;28;20283;-80
2022/09/23 03:02:51;;;;;;;1.10;1.10;;;;;;;;;;4960709;28;20284;-80
2022/09/23 03:05:25;;;;;;;0.90;0.90;;;;;;;;;;4951419;28;20319;-80
2022/09/23 03:08:05;;;;;;;1.00;1.00;;;;;;;;;;4960854;28;20193;-80
2022/09/23 03:10:40;;;;;;;0.73;0.73;;;;;;;;;;4942577;29;20225;-82
2022/09/23 03:13:16;;;;;;;1.20;1.10;;;;;;;;;;4960686;28;20184;-80
2022/09/23 03:15:51;;;;;;;0.88;0.88;;;;;;;;;;4961212;28;20664;-81
2022/09/23 03:18:22;;;;;;;1.38;1.27;;;;;;;;;;4960568;28;20673;-81
2022/09/23 03:20:53;;;;;;;1.15;1.10;;;;;;;;;;4960574;28;20256;-81
2022/09/23 03:23:25;;;;;;;1.15;1.15;;;;;;;;;;4960914;28;20308;-81
2022/09/23 03:25:54;;;;;;;1.10;1.10;;;;;;;;;;4954673;28;20214;-81
2022/09/23 03:28:22;;;;;;;1.30;1.20;;;;;;;;;;4949677;29;20288;-80
2022/09/23 03:30:50;;;;;;;1.80;1.70;;;;;;;;;;4959276;28;20285;-80
2022/09/23 03:33:20;;;;;;;1.70;1.60;;;;;;;;;;4960047;28;20231;-81
2022/09/23 03:38:45;;;;;;;1.50;1.40;;;;;;;;;;4958745;29;20344;-80
2022/09/23 03:41:15;;;;;;;1.33;1.30;;;;;;;;;;4959854;28;20259;-79
2022/09/23 03:43:44;;;;;;;1.63;1.52;;;;;;;;;;4959929;28;20231;-80
2022/09/23 03:46:14;;;;;;;2.10;1.90;;;;;;;;;;4959775;28;20201;-79
2022/09/23 03:48:41;;;;;;;1.40;1.30;;;;;;;;;;4959443;28;20220;-80
2022/09/23 03:51:22;;;;;;;1.60;1.50;;;;;;;;;;4960320;28;20284;-79
2022/09/23 03:53:50;;;;;;;1.88;1.77;;;;;;;;;;4959902;28;20229;-80
2022/09/23 03:56:17;;;;;;;1.58;1.48;;;;;;;;;;4959931;28;20197;-79
2022/09/23 03:58:45;;;;;;;1.30;1.20;;;;;;;;;;4962711;28;20185;-79
2022/09/23 04:01:14;;;;;;;1.80;1.70;;;;;;;;;;4961197;28;20228;-79
2022/09/23 04:03:42;;;;;;;1.65;1.55;;;;;;;;;;4959834;28;20233;-81
2022/09/23 04:06:11;;;;;;;1.95;1.85;;;;;;;;;;4959494;28;20243;-81
2022/09/23 04:08:38;;;;;;;3.78;2.30;;;;;;;;;;4958324;28;20237;-82
2022/09/23 04:11:06;;;;;;;1.65;1.55;;;;;;;;;;4958237;28;20276;-82
2022/09/23 04:13:34;;;;;;;1.67;1.58;;;;;;;;;;4959163;28;20224;-82
2022/09/23 04:16:02;;;;;;;1.65;1.55;;;;;;;;;;4959750;28;20228;-80
2022/09/23 04:18:30;;;;;;;2.08;1.88;;;;;;;;;;4958061;28;20576;-80
2022/09/23 04:20:58;;;;;;;2.10;2.00;;;;;;;;;;4958059;28;20231;-81
2022/09/23 04:23:28;;;;;;;1.58;1.42;;;;;;;;;;4959251;28;20247;-81
2022/09/23 04:25:56;;;;;;;1.70;1.60;;;;;;;;;;4958156;28;20296;-81
2022/09/23 04:28:23;;;;;;;1.50;1.40;;;;;;;;;;4957843;28;20776;-81
2022/09/23 04:30:52;;;;;;;1.15;1.15;;;;;;;;;;4958442;28;20201;-81
2022/09/23 04:33:20;;;;;;;1.50;1.40;;;;;;;;;;4958649;28;20582;-82
2022/09/23 04:35:51;;;;;;;1.67;1.58;;;;;;;;;;4958881;28;20254;-81
2022/09/23 04:38:19;;;;;;;1.52;1.42;;;;;;;;;;4959088;28;20197;-82
2022/09/23 04:40:48;;;;;;;1.42;1.33;;;;;;;;;;4958569;28;20315;-80
2022/09/23 04:43:16;;;;;;;1.00;1.00;;;;;;;;;;4958370;29;20239;-80
2022/09/23 04:45:43;;;;;;;1.42;1.33;;;;;;;;;;4958252;28;20235;-80
2022/09/23 04:48:12;;;;;;;1.27;1.23;;;;;;;;;;4958504;28;20233;-79
2022/09/23 04:50:41;;;;;;;1.23;1.20;;;;;;;;;;4959091;28;20205;-81
2022/09/23 04:53:08;;;;;;;1.50;1.40;;;;;;;;;;4958893;28;20220;-81
2022/09/23 04:55:36;;;;;;;1.90;1.80;;;;;;;;;;4958361;28;20287;-80
2022/09/23 04:58:05;;;;;;;1.55;1.45;;;;;;;;;;4958450;28;20215;-81
2022/09/23 05:00:32;;;;;;;1.73;1.60;;;;;;;;;;4958169;28;20301;-81
2022/09/23 05:02:59;;;;;;;1.60;1.50;;;;;;;;;;4958058;28;20268;-80
2022/09/23 05:05:28;;;;;;;1.55;1.45;;;;;;;;;;4957645;28;20268;-80
2022/09/23 05:07:56;;;;;;;1.52;1.38;;;;;;;;;;4958327;28;20209;-81
2022/09/23 05:10:23;;;;;;;1.40;1.30;;;;;;;;;;4957507;28;20283;-81
2022/09/23 05:12:51;;;;;;;1.40;1.30;;;;;;;;;;4957680;29;20229;-81
2022/09/23 05:15:20;;;;;;;1.20;1.20;;;;;;;;;;4957360;28;20244;-82
2022/09/23 05:17:47;;;;;;;1.42;1.33;;;;;;;;;;4957455;28;21026;-81
2022/09/23 05:20:15;;;;;;;2.00;1.90;;;;;;;;;;4957073;28;20283;-82
2022/09/23 05:22:42;;;;;;;2.95;2.47;;;;;;;;;;4953985;29;20300;-82
2022/09/23 05:25:10;;;;;;;1.50;1.40;;;;;;;;;;4957392;28;20587;-81
2022/09/23 05:27:38;;;;;;;1.75;1.65;;;;;;;;;;4958888;28;20235;-81
2022/09/23 05:30:07;;;;;;;1.88;1.70;;;;;;;;;;4958616;28;20209;-81
2022/09/23 05:32:36;;;;;;;1.80;1.70;;;;;;;;;;4957021;28;20208;-82
2022/09/23 05:35:04;;;;;;;1.52;1.42;;;;;;;;;;4955548;29;20217;-81
2022/09/23 05:37:32;;;;;;;1.50;1.40;;;;;;;;;;4962673;28;20264;-81
2022/09/23 05:39:59;;;;;;;1.70;1.60;;;;;;;;;;4963001;28;20239;-81
2022/09/23 05:42:27;;;;;;;1.65;1.55;;;;;;;;;;4962347;28;20698;-80
2022/09/23 05:44:55;;;;;;;1.48;1.38;;;;;;;;;;4961673;28;20227;-80
2022/09/23 05:47:22;;;;;;;1.60;1.50;;;;;;;;;;4960638;28;20217;-81
2022/09/23 05:49:51;;;;;;;8.43;6.95;;;;;;;;;;4960728;28;20295;-80
2022/09/23 05:52:18;;;;;;;7.20;6.38;;;;;;;;;;4962780;28;20288;-80
2022/09/23 05:54:46;;;;;;;5.28;4.78;;;;;;;;;;4961235;28;20249;-80
2022/09/23 05:57:13;;;;;;;3.33;3.03;;;;;;;;;;4961487;28;20292;-80
2022/09/23 05:59:42;;;;;;;3.60;3.28;;;;;;;;;;4961980;28;20198;-80
2022/09/23 06:02:09;;;;;;;3.10;2.28;;;;;;;;;;4961639;28;20225;-80
2022/09/23 06:04:37;;;;;;;2.08;1.80;;;;;;;;;;4961194;28;20238;-80
2022/09/23 06:07:06;;;;;;;2.35;2.15;;;;;;;;;;4960525;28;20219;-81
2022/09/23 06:09:33;;;;;;;2.17;1.98;;;;;;;;;;4960559;28;20717;-81
2022/09/23 06:12:01;;;;;;;1.85;1.70;;;;;;;;;;4958893;28;20288;-82
2022/09/23 06:14:29;;;;;;;3.08;2.00;;;;;;;;;;4959359;28;20303;-81
2022/09/23 06:16:56;;;;;;;2.15;1.95;;;;;;;;;;4959031;28;20280;-82
2022/09/23 06:19:24;;;;;;;2.65;2.25;;;;;;;;;;4959789;28;20301;-82
2022/09/23 06:21:51;;;;;;;2.67;2.03;;;;;;;;;;4960624;28;20724;-81
2022/09/23 06:24:20;;;;;;;2.40;2.20;;;;;;;;;;4961546;28;20252;-81
2022/09/23 06:26:48;;;;;;;2.47;2.28;;;;;;;;;;4961028;28;20228;-81
2022/09/23 06:29:17;;;;;;;2.53;2.28;;;;;;;;;;4960803;28;20284;-82
2022/09/23 06:31:44;;;;;;;3.70;2.50;;;;;;;;;;4963329;28;20209;-81
2022/09/23 06:34:13;;;;;;;2.53;2.33;;;;;;;;;;4962106;28;20263;-82
2022/09/23 06:36:41;;;;;;;3.22;2.83;;;;;;;;;;4961779;29;20632;-81
2022/09/23 06:39:08;;;;;;;2.80;2.55;;;;;;;;;;4960974;28;20243;-80
2022/09/23 06:41:38;;;;;;;3.00;2.70;;;;;;;;;;4961314;28;20603;-81
2022/09/23 06:44:05;;;;;;;3.20;2.50;;;;;;;;;;4952941;28;20221;-80
2022/09/23 06:46:33;;;;;;;4.03;3.63;;;;;;;;;;4962441;28;20623;-80
2022/09/23 06:49:00;;;;;;;3.97;3.45;;;;;;;;;;4951083;28;20240;-80
2022/09/23 06:51:28;;;;;;;4.25;2.63;;;;;;;;;;4947494;29;20190;-80
2022/09/23 06:53:55;;;;;;;2.58;2.38;;;;;;;;;;4961696;28;20315;-80
2022/09/23 06:56:23;;;;;;;2.83;2.20;;;;;;;;;;4960067;28;20211;-80
2022/09/23 06:58:53;;;;;;;2.15;1.90;;;;;;;;;;4967712;28;20212;-81
2022/09/23 07:01:22;;;;;;;2.53;2.33;;;;;;;;;;4961681;28;20273;-81
2022/09/23 07:03:49;;;;;;;2.53;2.33;;;;;;;;;;4961603;28;20296;-82
2022/09/23 07:06:17;;;;;;;2.47;2.13;;;;;;;;;;4962234;28;20197;-82
2022/09/23 07:08:47;;;;;;;2.60;2.40;;;;;;;;;;4944467;28;20261;-82
2022/09/23 07:11:18;;;;;;;2.50;2.30;;;;;;;;;;4953277;29;20205;-82
2022/09/23 07:13:45;;;;;;;2.38;2.22;;;;;;;;;;4962376;28;20225;-83
2022/09/23 07:16:14;;;;;;;2.28;2.13;;;;;;;;;;4962269;28;20235;-83
2022/09/23 07:18:42;;;;;;;2.30;2.08;;;;;;;;;;4962289;28;20678;-83
2022/09/23 07:21:13;;;;;;;7.38;2.50;;;;;;;;;;4961763;28;20236;-83
2022/09/23 07:23:41;;;;;;;3.22;2.35;;;;;;;;;;4962507;28;20299;-81
2022/09/23 07:26:09;;;;;;;5.45;3.15;;;;;;;;;;4961774;28;20297;-82
2022/09/23 07:28:37;;;;;;;2.88;2.50;;;;;;;;;;4962813;28;20297;-83
2022/09/23 07:31:08;;;;;;;2.88;2.33;;;;;;;;;;4961792;28;20209;-83
2022/09/23 07:33:39;;;;;;;3.22;2.40;;;;;;;;;;4960070;28;20275;-81
2022/09/23 07:36:08;;;;;;;2.58;2.20;;;;;;;;;;4959284;28;20276;-83
2022/09/23 07:38:36;;;;;;;2.10;2.00;;;;;;;;;;4962693;28;20209;-81
2022/09/23 07:41:09;;;;;;;3.08;2.13;;;;;;;;;;4962779;28;20283;-81
2022/09/23 07:43:38;;;;;;;2.20;2.00;;;;;;;;;;4966986;28;20240;-81
2022/09/23 07:46:09;;;;;;;2.78;2.08;;;;;;;;;;4962233;28;20204;-83
2022/09/23 07:48:39;;;;;;;2.45;2.22;;;;;;;;;;4963229;28;20201;-80
2022/09/23 07:51:08;;;;;;;4.65;2.72;;;;;;;;;;4962537;28;20240;-81
2022/09/23 07:53:36;;;;;;;2.35;2.15;;;;;;;;;;4961608;28;20584;-81
2022/09/23 07:56:05;;;;;;;3.25;2.22;;;;;;;;;;4962586;28;20273;-82
2022/09/23 07:58:33;;;;;;;2.00;1.90;;;;;;;;;;4962235;28;20214;-81
2022/09/23 08:01:07;;;;;;;2.90;1.95;;;;;;;;;;4962317;28;20205;-82
2022/09/23 08:03:35;;;;;;;1.95;1.85;;;;;;;;;;4961580;28;20248;-82
2022/09/23 08:06:12;;;;;;;2.20;1.65;;;;;;;;;;4958758;28;20205;-81
2022/09/23 08:08:42;;;;;;;1.73;1.63;;;;;;;;;;4953971;29;20569;-80
2022/09/23 08:11:13;;;;;;;3.83;2.70;;;;;;;;;;4959926;29;20205;-81
2022/09/23 08:13:41;;;;;;;2.40;1.70;;;;;;;;;;4954074;28;20296;-81
2022/09/23 08:16:08;;;;;;;1.67;1.58;;;;;;;;;;4965312;28;20200;-82
2022/09/23 08:18:36;;;;;;;1.45;1.35;;;;;;;;;;4962950;28;20730;-84
2022/09/23 08:21:04;;;;;;;1.80;1.70;;;;;;;;;;4961407;28;20571;-83
2022/09/23 08:23:33;;;;;;;1.55;1.40;;;;;;;;;;4962899;28;20239;-83
2022/09/23 08:26:03;;;;;;;1.20;1.20;;;;;;;;;;4962037;28;20213;-81
2022/09/23 08:28:32;;;;;;;1.80;1.70;;;;;;;;;;4961915;28;20296;-81
2022/09/23 08:31:00;;;;;;;1.30;1.20;;;;;;;;;;4961386;28;20561;-84
2022/09/23 08:33:28;;;;;;;1.60;1.50;;;;;;;;;;4960625;28;20225;-84
2022/09/23 08:36:00;;;;;;;1.92;1.75;;;;;;;;;;4959229;28;20207;-84
2022/09/23 08:38:28;;;;;;;1.42;1.33;;;;;;;;;;4961692;28;20205;-83
2022/09/23 08:41:08;;;;;;;2.40;2.30;;;;;;;;;;4959676;28;20227;-82
2022/09/23 08:43:37;;;;;;;1.50;1.40;;;;;;;;;;4961749;28;20227;-83
2022/09/23 08:46:10;;;;;;;1.55;1.40;;;;;;;;;;4961532;28;20212;-83
2022/09/23 08:48:43;;;;;;;1.70;1.60;;;;;;;;;;4956940;28;20186;-82
2022/09/23 08:51:14;;;;;;;1.60;1.50;;;;;;;;;;4958102;28;20699;-82
2022/09/23 08:53:44;;;;;;;1.70;1.60;;;;;;;;;;4958620;28;20244;-83
2022/09/23 08:56:16;;;;;;;1.45;1.35;;;;;;;;;;4955377;28;20578;-81
2022/09/23 08:58:56;;;;;;;1.67;1.58;;;;;;;;;;4959609;28;20276;-81
2022/09/23 09:01:28;;;;;;;1.45;1.35;;;;;;;;;;4960482;28;20634;-82
2022/09/23 09:03:57;;;;;;;1.60;1.50;;;;;;;;;;4958400;28;20308;-82
2022/09/23 09:06:30;;;;;;;1.50;1.40;;;;;;;;;;4959195;28;20231;-83
2022/09/23 09:09:00;;;;;;;1.55;1.45;;;;;;;;;;4945646;28;20666;-83
2022/09/23 09:11:36;;;;;;;1.30;1.20;;;;;;;;;;4957421;28;20228;-85
2022/09/23 09:14:15;;;;;;;1.20;1.10;;;;;;;;;;4958680;28;20315;-84
2022/09/23 09:16:58;;;;;;;1.63;1.30;;;;;;;;;;4957168;28;20570;-85
2022/09/23 09:19:43;;;;;;;1.55;1.23;;;;;;;;;;4957670;28;20802;-85
2022/09/23 09:22:20;;;;;;;1.30;1.20;;;;;;;;;;4939366;29;20585;-84
2022/09/23 09:24:52;;;;;;;1.88;1.65;;;;;;;;;;4938149;29;20593;-85
2022/09/23 09:27:21;;;;;;;2.75;1.60;;;;;;;;;;4938338;29;20632;-84
2022/09/23 09:29:52;;;;;;;1.75;1.65;;;;;;;;;;4944607;29;20742;-86
2022/09/23 09:32:42;;;;;;;2.00;1.48;;;;;;;;;;4957987;28;20196;-85
2022/09/23 09:35:22;;;;;;;1.65;1.55;;;;;;;;;;4957945;28;20757;-85
2022/09/23 09:37:50;;;;;;;1.45;1.35;;;;;;;;;;4957841;28;20242;-88
2022/09/23 09:40:19;;;;;;;1.60;1.50;;;;;;;;;;4956897;28;20260;-85
2022/09/23 09:42:50;;;;;;;2.25;1.35;;;;;;;;;;4956935;28;20626;-86
2022/09/23 09:45:27;;;;;;;1.80;1.52;;;;;;;;;;4957106;28;20236;-85
2022/09/23 09:48:04;;;;;;;1.75;1.45;;;;;;;;;;4958869;28;22452;-86
2022/09/23 09:50:48;;;;;;;1.40;1.38;;;;;;;;;;4957735;28;20204;-86
2022/09/23 09:53:25;;;;;;;1.85;1.75;;;;;;;;;;4958078;28;20223;-86
2022/09/23 09:56:02;;;;;;;1.38;1.27;;;;;;;;;;4957445;28;20205;-87
2022/09/23 09:58:42;;;;;;;1.20;1.10;;;;;;;;;;4957052;28;20244;-88
2022/09/23 10:01:19;;;;;;;1.33;1.23;;;;;;;;;;4957642;28;20189;-88
2022/09/23 10:03:47;;;;;;;1.27;1.27;;;;;;;;;;4959382;28;20311;-88
2022/09/23 10:06:19;;;;;;;1.00;1.00;;;;;;;;;;4959794;28;20208;-87
2022/09/23 10:09:09;;;;;;;1.50;1.40;;;;;;;;;;4958005;28;20194;-88
2022/09/23 10:11:38;;;;;;;1.67;1.50;;;;;;;;;;4958611;28;20193;-85
2022/09/23 10:14:13;;;;;;;1.10;1.10;;;;;;;;;;4957534;28;20256;-88
2022/09/23 10:16:41;;;;;;;1.70;1.60;;;;;;;;;;4957130;28;20664;-87
2022/09/23 10:19:24;;;;;;;1.70;1.35;;;;;;;;;;4960794;28;20225;-87
2022/09/23 10:21:58;;;;;;;1.40;1.30;;;;;;;;;;4960889;28;20212;-88
2022/09/23 10:24:28;;;;;;;0.90;0.90;;;;;;;;;;4960140;28;20296;-87
2022/09/23 10:26:59;;;;;;;2.05;1.35;;;;;;;;;;4960651;28;20205;-88
2022/09/23 10:29:33;;;;;;;1.17;1.17;;;;;;;;;;4961587;28;20193;-86
2022/09/23 10:32:26;;;;;;;1.23;1.13;;;;;;;;;;4961283;28;20264;-86
2022/09/23 10:34:57;;;;;;;1.38;1.27;;;;;;;;;;4961259;28;20514;-86
2022/09/23 10:37:37;;;;;;;1.20;1.10;;;;;;;;;;4962375;28;20273;-85
2022/09/23 10:49:22;;;;;;;1.45;1.35;;;;;;;;;;4963677;29;20237;-86
2022/09/23 10:51:58;;;;;;;1.30;1.30;;;;;;;;;;4963976;28;20299;-88
2022/09/23 10:54:40;;;;;;;1.77;1.67;;;;;;;;;;4965112;28;20247;-86
2022/09/23 11:00:09;;;;;;;1.42;1.25;;;;;;;;;;4966286;29;20196;-87
2022/09/23 11:03:02;;;;;;;1.08;1.08;;;;;;;;;;4964728;28;20185;-85
2022/09/23 11:05:36;;;;;;;1.60;1.50;;;;;;;;;;4963423;28;20698;-87
2022/09/23 11:08:30;;;;;;;1.50;1.40;;;;;;;;;;4962122;28;20212;-84
2022/09/23 11:11:17;;;;;;;2.67;1.83;;;;;;;;;;4961765;28;20296;-85
2022/09/23 11:14:15;;;;;;;1.38;1.27;;;;;;;;;;4963239;28;20690;-86
2022/09/23 11:16:58;;;;;;;1.25;1.25;;;;;;;;;;4963695;28;20256;-86
2022/09/23 11:19:49;;;;;;;1.20;1.20;;;;;;;;;;4963305;28;20236;-86
2022/09/23 11:22:34;;;;;;;1.65;1.55;;;;;;;;;;4962817;28;20224;-86
2022/09/23 11:25:22;;;;;;;1.63;1.52;;;;;;;;;;4962392;28;20228;-86
2022/09/23 11:28:16;;;;;;;1.33;1.23;;;;;;;;;;4962393;28;20182;-87
2022/09/23 11:30:53;;;;;;;1.77;1.67;;;;;;;;;;4962768;28;20185;-86
2022/09/23 11:33:39;;;;;;;1.65;1.55;;;;;;;;;;4962586;28;20248;-86
2022/09/23 11:36:11;;;;;;;1.52;1.42;;;;;;;;;;4962445;28;20249;-86
2022/09/23 11:38:42;;;;;;;1.52;1.35;;;;;;;;;;4962630;28;20236;-86
2022/09/23 11:41:19;;;;;;;1.38;1.27;;;;;;;;;;4961861;28;20193;-86
2022/09/23 11:43:51;;;;;;;1.20;1.10;;;;;;;;;;4962034;28;20213;-86
2022/09/23 11:46:30;;;;;;;1.30;1.20;;;;;;;;;;4962648;28;20213;-85
2022/09/23 11:49:03;;;;;;;1.40;1.30;;;;;;;;;;4963625;28;20257;-87
2022/09/23 11:51:37;;;;;;;1.88;1.42;;;;;;;;;;4963971;28;20189;-86
2022/09/23 11:54:09;;;;;;;1.50;1.40;;;;;;;;;;4963768;28;20255;-85
2022/09/23 11:56:40;;;;;;;1.25;1.20;;;;;;;;;;4964214;28;20271;-85
2022/09/23 11:59:15;;;;;;;1.70;1.38;;;;;;;;;;4963310;28;20627;-86
2022/09/23 12:01:47;;;;;;;1.70;1.60;;;;;;;;;;4962048;28;20267;-88
2022/09/23 12:04:23;;;;;;;3.60;1.80;;;;;;;;;;4961513;28;20255;-87
2022/09/23 12:06:57;;;;;;;1.30;1.20;;;;;;;;;;4962755;28;20627;-84
2022/09/23 12:09:32;;;;;;;1.38;1.35;;;;;;;;;;4962274;28;20185;-85
2022/09/23 12:12:04;;;;;;;1.27;1.17;;;;;;;;;;4962294;29;20193;-86
2022/09/23 12:14:39;;;;;;;1.42;1.33;;;;;;;;;;4962413;28;20326;-85
2022/09/23 12:17:25;;;;;;;1.30;1.20;;;;;;;;;;4960794;28;20189;-85
2022/09/23 12:20:12;;;;;;;1.40;1.30;;;;;;;;;;4961762;29;20220;-84
2022/09/23 12:22:55;;;;;;;3.30;1.50;;;;;;;;;;4960627;29;20252;-84
2022/09/23 12:25:45;;;;;;;1.40;1.30;;;;;;;;;;4961463;28;20300;-84
2022/09/23 12:28:17;;;;;;;1.17;1.08;;;;;;;;;;4961803;28;20193;-84
2022/09/23 12:30:45;;;;;;;2.15;1.40;;;;;;;;;;4961759;29;20205;-84
2022/09/23 12:33:23;;;;;;;1.67;1.40;;;;;;;;;;4961314;29;20209;-84
2022/09/23 12:35:53;;;;;;;2.53;1.50;;;;;;;;;;4962208;28;20208;-84
2022/09/23 12:38:25;;;;;;;1.40;1.30;;;;;;;;;;4962561;29;20212;-84
2022/09/23 12:40:53;;;;;;;1.15;1.15;;;;;;;;;;4962000;28;20714;-84
2022/09/23 12:43:30;;;;;;;1.02;1.02;;;;;;;;;;4961143;28;20248;-87
2022/09/23 12:46:18;;;;;;;1.20;1.10;;;;;;;;;;4961117;29;20223;-86
2022/09/23 12:49:00;;;;;;;1.50;1.40;;;;;;;;;;4961843;29;20191;-86
2022/09/23 12:51:28;;;;;;;1.50;1.33;;;;;;;;;;4961472;29;20165;-83
2022/09/23 12:54:25;;;;;;;1.42;1.33;;;;;;;;;;4961252;29;20221;-83
2022/09/23 12:57:05;;;;;;;1.50;1.40;;;;;;;;;;4952749;28;20651;-83
2022/09/23 12:59:56;;;;;;;1.58;1.48;;;;;;;;;;4962165;28;20200;-84
2022/09/23 13:02:36;;;;;;;1.35;1.25;;;;;;;;;;4962454;28;20213;-85
2022/09/23 13:08:12;;;;;;;3.53;1.40;;;;;;;;;;4960077;29;20192;-83
2022/09/23 13:10:47;;;;;;;1.60;1.50;;;;;;;;;;4961546;28;20268;-85
2022/09/23 13:13:23;;;;;;;2.35;1.17;;;;;;;;;;4960745;29;20533;-82
2022/09/23 13:15:51;;;;;;;1.77;1.48;;;;;;;;;;4961485;28;20185;-87
2022/09/23 13:18:57;;;;;;;1.95;1.85;;;;;;;;;;4961550;29;20745;-85
2022/09/23 13:22:06;;;;;;;1.08;1.08;;;;;;;;;;4953869;28;20232;-85
2022/09/23 13:24:53;;;;;;;1.40;1.30;;;;;;;;;;4959046;28;20255;-85
2022/09/23 13:27:27;;;;;;;1.30;1.30;;;;;;;;;;4959524;29;20225;-83
2022/09/23 13:29:59;;;;;;;2.90;1.52;;;;;;;;;;4951463;28;20233;-83
2022/09/23 13:32:32;;;;;;;2.28;2.08;;;;;;;;;;4941045;29;20261;-84
2022/09/23 13:35:03;;;;;;;3.38;2.03;;;;;;;;;;4940692;29;20288;-84
2022/09/23 13:37:45;;;;;;;1.50;1.40;;;;;;;;;;4940956;29;20222;-84
2022/09/23 13:40:22;;;;;;;1.50;1.40;;;;;;;;;;4940867;29;20250;-84
2022/09/23 13:42:56;;;;;;;1.40;1.30;;;;;;;;;;4941105;29;20201;-85
2022/09/23 13:45:25;;;;;;;1.73;1.63;;;;;;;;;;4941192;29;20213;-85
2022/09/23 13:47:55;;;;;;;1.85;1.65;;;;;;;;;;4941385;29;20194;-86
2022/09/23 13:50:24;;;;;;;1.50;1.30;;;;;;;;;;4959685;28;20211;-86
2022/09/23 13:52:54;;;;;;;1.23;1.05;;;;;;;;;;4960633;28;20296;-85
2022/09/23 13:55:37;;;;;;;1.40;1.30;;;;;;;;;;4962273;29;20295;-87
2022/09/23 13:58:17;;;;;;;1.42;1.33;;;;;;;;;;4949995;28;20198;-86
2022/09/23 14:00:45;;;;;;;0.98;0.98;;;;;;;;;;4944115;29;20190;-86
2022/09/23 14:03:29;;;;;;;2.30;2.10;;;;;;;;;;4957929;29;20267;-86
2022/09/23 14:05:59;;;;;;;1.42;1.33;;;;;;;;;;4963709;29;20241;-84
2022/09/23 14:08:28;;;;;;;1.23;1.15;;;;;;;;;;4962763;29;20201;-86
2022/09/23 14:10:57;;;;;;;1.73;1.63;;;;;;;;;;4961437;29;20201;-86
2022/09/23 14:13:31;;;;;;;1.40;1.30;;;;;;;;;;4961587;29;20232;-86
2022/09/23 14:16:01;;;;;;;1.42;1.33;;;;;;;;;;4962116;28;20252;-86
2022/09/23 14:18:35;;;;;;;2.38;1.15;;;;;;;;;;4961536;29;20606;-88
2022/09/23 14:21:03;;;;;;;1.42;1.27;;;;;;;;;;4962092;29;20269;-85
2022/09/23 14:23:31;;;;;;;1.75;1.30;;;;;;;;;;4961880;29;20315;-87
2022/09/23 14:25:59;;;;;;;0.95;0.95;;;;;;;;;;4962719;28;20312;-86
2022/09/23 14:28:28;;;;;;;1.13;1.13;;;;;;;;;;4961817;28;20240;-86
2022/09/23 14:30:57;;;;;;;1.10;1.00;;;;;;;;;;4962300;28;20296;-87
2022/09/23 14:33:30;;;;;;;1.45;1.35;;;;;;;;;;4961262;28;20257;-85
2022/09/23 14:36:07;;;;;;;0.90;0.90;;;;;;;;;;4962139;28;20303;-85
2022/09/23 14:38:49;;;;;;;0.98;0.90;;;;;;;;;;4962122;29;20193;-87
2022/09/23 14:41:23;;;;;;;1.05;1.05;;;;;;;;;;4961127;28;20192;-87
2022/09/23 14:43:56;;;;;;;0.90;0.90;;;;;;;;;;4960904;29;20225;-88
2022/09/23 14:46:32;;;;;;;1.15;1.05;;;;;;;;;;4959381;28;20228;-86
2022/09/23 14:49:05;;;;;;;1.13;0.98;;;;;;;;;;4959692;28;20567;-88
2022/09/23 14:51:47;;;;;;;1.00;1.00;;;;;;;;;;4960864;28;20217;-86
2022/09/23 14:54:43;;;;;;;0.63;0.63;;;;;;;;;;4961410;28;20221;-87
2022/09/23 14:57:27;;;;;;;1.02;1.00;;;;;;;;;;4939994;29;20997;-87
2022/09/23 15:00:01;;;;;;;0.80;0.80;;;;;;;;;;4960102;29;20221;-88
2022/09/23 15:02:32;;;;;;;0.90;0.90;;;;;;;;;;4960955;28;20253;-86
2022/09/23 15:05:17;;;;;;;1.00;0.90;;;;;;;;;;4959878;28;20233;-86
2022/09/23 15:07:48;;;;;;;1.02;0.93;;;;;;;;;;4942235;29;20210;-88
2022/09/23 15:12:49;;;;;;;1.13;1.13;;;;;;;;;;5048459;28;20214;-84
2022/09/23 15:15:18;;;;;;;0.80;0.80;;;;;;;;;;5038039;28;20221;-83
2022/09/23 15:17:47;;;;;;;0.80;0.80;;;;;;;;;;5036249;28;20240;-84
2022/09/23 15:20:23;;;;;;;0.80;0.80;;;;;;;;;;5037314;28;20225;-83
2022/09/23 15:22:53;;;;;;;2.63;0.85;;;;;;;;;;5036872;28;20206;-84
2022/09/23 15:25:26;;;;;;;0.85;0.85;;;;;;;;;;5035993;28;20209;-83
2022/09/23 15:28:13;;;;;;;0.75;0.75;;;;;;;;;;5024789;28;20272;-82
2022/09/23 15:30:42;;;;;;;0.70;0.70;;;;;;;;;;5022126;28;20288;-82
2022/09/23 15:33:13;;;;;;;0.57;0.57;;;;;;;;;;5027471;28;20596;-81
2022/09/23 15:35:45;;;;;;;0.73;0.65;;;;;;;;;;5020579;28;20195;-81
2022/09/23 15:38:13;;;;;;;1.90;0.85;;;;;;;;;;5033139;28;20410;-82